sensor_id;sensor_type;location;lat;lon;timestamp;temperature;humidity
10316;DHT22;5203;48.976;8.306;2023-03-23T00:01:53;15.00;57.50
10316;DHT22;5203;48.976;8.306;2023-03-23T00:04:19;15.00;58.00
10316;DHT22;5203;48.976;8.306;2023-03-23T00:06:46;15.00;57.50
10316;DHT22;5203;48.976;8.306;2023-03-23T00:09:13;15.10;57.50
10316;DHT22;5203;48.976;8.306;2023-03-23T00:11:40;15.10;57.20
10316;DHT22;5203;48.976;8.306;2023-03-23T00:14:06;15.10;56.80
10316;DHT22;5203;48.976;8.306;2023-03-23T00:16:39;15.20;56.30
10316;DHT22;5203;48.976;8.306;2023-03-23T00:19:11;15.20;56.00
10316;DHT22;5203;48.976;8.306;2023-03-23T00:21:41;15.30;55.40
10316;DHT22;5203;48.976;8.306;2023-03-23T00:26:40;15.30;56.20
10316;DHT22;5203;48.976;8.306;2023-03-23T00:29:26;15.20;56.30
10316;DHT22;5203;48.976;8.306;2023-03-23T00:31:52;15.20;56.60
10316;DHT22;5203;48.976;8.306;2023-03-23T00:34:21;15.20;56.20
10316;DHT22;5203;48.976;8.306;2023-03-23T00:36:49;15.30;56.00
10316;DHT22;5203;48.976;8.306;2023-03-23T00:39:16;15.30;56.20
10316;DHT22;5203;48.976;8.306;2023-03-23T00:41:46;15.30;56.50
10316;DHT22;5203;48.976;8.306;2023-03-23T00:44:13;15.30;56.00
10316;DHT22;5203;48.976;8.306;2023-03-23T00:46:49;15.30;56.10
10316;DHT22;5203;48.976;8.306;2023-03-23T00:49:19;15.30;56.20
10316;DHT22;5203;48.976;8.306;2023-03-23T00:51:45;15.40;56.00
10316;DHT22;5203;48.976;8.306;2023-03-23T00:54:12;15.40;56.10
10316;DHT22;5203;48.976;8.306;2023-03-23T00:56:38;15.40;56.10
10316;DHT22;5203;48.976;8.306;2023-03-23T00:59:04;15.30;56.90
10316;DHT22;5203;48.976;8.306;2023-03-23T01:01:30;15.30;57.00
10316;DHT22;5203;48.976;8.306;2023-03-23T01:03:58;15.30;57.00
10316;DHT22;5203;48.976;8.306;2023-03-23T01:06:27;15.40;56.90
10316;DHT22;5203;48.976;8.306;2023-03-23T01:08:53;15.40;57.00
10316;DHT22;5203;48.976;8.306;2023-03-23T01:11:19;15.40;56.70
10316;DHT22;5203;48.976;8.306;2023-03-23T01:13:45;15.40;56.70
10316;DHT22;5203;48.976;8.306;2023-03-23T01:16:11;15.40;55.80
10316;DHT22;5203;48.976;8.306;2023-03-23T01:18:41;15.50;55.60
10316;DHT22;5203;48.976;8.306;2023-03-23T01:21:12;15.50;55.90
10316;DHT22;5203;48.976;8.306;2023-03-23T01:23:39;15.50;55.50
10316;DHT22;5203;48.976;8.306;2023-03-23T01:26:09;15.50;55.80
10316;DHT22;5203;48.976;8.306;2023-03-23T01:28:35;15.40;55.90
10316;DHT22;5203;48.976;8.306;2023-03-23T01:31:06;15.50;56.20
10316;DHT22;5203;48.976;8.306;2023-03-23T01:33:33;15.50;55.10
10316;DHT22;5203;48.976;8.306;2023-03-23T01:36:04;15.50;55.40
10316;DHT22;5203;48.976;8.306;2023-03-23T01:38:30;15.60;55.30
10316;DHT22;5203;48.976;8.306;2023-03-23T01:40:56;15.60;55.40
10316;DHT22;5203;48.976;8.306;2023-03-23T01:43:22;15.60;54.70
10316;DHT22;5203;48.976;8.306;2023-03-23T01:45:47;15.60;54.70
10316;DHT22;5203;48.976;8.306;2023-03-23T01:50:58;15.60;54.90
10316;DHT22;5203;48.976;8.306;2023-03-23T01:53:30;15.60;54.90
10316;DHT22;5203;48.976;8.306;2023-03-23T01:55:57;15.60;55.40
10316;DHT22;5203;48.976;8.306;2023-03-23T01:58:27;15.60;55.00
10316;DHT22;5203;48.976;8.306;2023-03-23T02:00:57;15.60;54.80
10316;DHT22;5203;48.976;8.306;2023-03-23T02:03:27;15.70;54.50
10316;DHT22;5203;48.976;8.306;2023-03-23T02:05:55;15.70;55.10
10316;DHT22;5203;48.976;8.306;2023-03-23T02:08:25;15.60;54.90
10316;DHT22;5203;48.976;8.306;2023-03-23T02:10:53;15.70;54.60
10316;DHT22;5203;48.976;8.306;2023-03-23T02:13:19;15.70;54.70
10316;DHT22;5203;48.976;8.306;2023-03-23T02:23:23;15.80;53.50
10316;DHT22;5203;48.976;8.306;2023-03-23T02:25:58;15.80;53.00
10316;DHT22;5203;48.976;8.306;2023-03-23T02:34:08;15.90;53.00
10316;DHT22;5203;48.976;8.306;2023-03-23T02:36:42;16.00;53.60
10316;DHT22;5203;48.976;8.306;2023-03-23T02:39:42;15.90;53.40
10316;DHT22;5203;48.976;8.306;2023-03-23T02:42:10;16.10;53.10
10316;DHT22;5203;48.976;8.306;2023-03-23T02:44:40;16.00;53.80
10316;DHT22;5203;48.976;8.306;2023-03-23T02:47:13;16.00;53.80
10316;DHT22;5203;48.976;8.306;2023-03-23T02:49:42;16.00;53.90
10316;DHT22;5203;48.976;8.306;2023-03-23T02:52:12;16.00;54.10
10316;DHT22;5203;48.976;8.306;2023-03-23T02:54:43;16.00;54.50
10316;DHT22;5203;48.976;8.306;2023-03-23T02:57:10;15.90;54.70
10316;DHT22;5203;48.976;8.306;2023-03-23T02:59:36;15.90;55.10
10316;DHT22;5203;48.976;8.306;2023-03-23T03:02:09;16.00;54.70
10316;DHT22;5203;48.976;8.306;2023-03-23T03:04:39;15.90;54.40
10316;DHT22;5203;48.976;8.306;2023-03-23T03:15:30;16.20;53.70
10316;DHT22;5203;48.976;8.306;2023-03-23T03:20:31;16.00;54.60
10316;DHT22;5203;48.976;8.306;2023-03-23T03:22:59;16.00;55.00
10316;DHT22;5203;48.976;8.306;2023-03-23T03:25:26;16.00;54.90
10316;DHT22;5203;48.976;8.306;2023-03-23T03:27:53;15.90;55.30
10316;DHT22;5203;48.976;8.306;2023-03-23T03:30:23;16.10;54.40
10316;DHT22;5203;48.976;8.306;2023-03-23T03:32:52;16.10;55.60
10316;DHT22;5203;48.976;8.306;2023-03-23T03:35:24;16.10;56.00
10316;DHT22;5203;48.976;8.306;2023-03-23T03:37:50;16.00;56.20
10316;DHT22;5203;48.976;8.306;2023-03-23T03:40:19;15.90;57.10
10316;DHT22;5203;48.976;8.306;2023-03-23T03:42:45;15.80;57.00
10316;DHT22;5203;48.976;8.306;2023-03-23T03:45:14;15.90;56.60
10316;DHT22;5203;48.976;8.306;2023-03-23T03:47:40;15.90;56.90
10316;DHT22;5203;48.976;8.306;2023-03-23T03:50:06;15.80;57.40
10316;DHT22;5203;48.976;8.306;2023-03-23T03:52:33;15.80;57.70
10316;DHT22;5203;48.976;8.306;2023-03-23T03:54:59;15.70;58.30
10316;DHT22;5203;48.976;8.306;2023-03-23T03:57:25;15.70;58.70
10316;DHT22;5203;48.976;8.306;2023-03-23T03:59:51;15.60;58.60
10316;DHT22;5203;48.976;8.306;2023-03-23T04:02:18;15.80;58.50
10316;DHT22;5203;48.976;8.306;2023-03-23T04:04:46;15.60;58.90
10316;DHT22;5203;48.976;8.306;2023-03-23T04:07:13;15.70;58.80
10316;DHT22;5203;48.976;8.306;2023-03-23T04:09:40;15.70;59.20
10316;DHT22;5203;48.976;8.306;2023-03-23T04:12:05;15.60;58.60
10316;DHT22;5203;48.976;8.306;2023-03-23T04:14:32;15.70;59.10
10316;DHT22;5203;48.976;8.306;2023-03-23T04:16:58;15.60;59.30
10316;DHT22;5203;48.976;8.306;2023-03-23T04:19:24;15.60;59.70
10316;DHT22;5203;48.976;8.306;2023-03-23T04:21:50;15.70;59.90
10316;DHT22;5203;48.976;8.306;2023-03-23T04:24:17;15.60;60.20
10316;DHT22;5203;48.976;8.306;2023-03-23T04:26:47;15.60;60.70
10316;DHT22;5203;48.976;8.306;2023-03-23T04:29:16;15.50;61.20
10316;DHT22;5203;48.976;8.306;2023-03-23T04:31:59;15.50;61.50
10316;DHT22;5203;48.976;8.306;2023-03-23T04:34:26;15.40;61.50
10316;DHT22;5203;48.976;8.306;2023-03-23T04:36:52;15.30;62.70
10316;DHT22;5203;48.976;8.306;2023-03-23T04:39:18;15.20;63.30
10316;DHT22;5203;48.976;8.306;2023-03-23T04:41:44;15.20;62.10
10316;DHT22;5203;48.976;8.306;2023-03-23T04:44:11;15.10;63.10
10316;DHT22;5203;48.976;8.306;2023-03-23T04:46:43;15.30;61.90
10316;DHT22;5203;48.976;8.306;2023-03-23T04:49:10;15.40;60.50
10316;DHT22;5203;48.976;8.306;2023-03-23T04:51:36;15.30;61.40
10316;DHT22;5203;48.976;8.306;2023-03-23T04:54:01;15.30;61.40
10316;DHT22;5203;48.976;8.306;2023-03-23T04:56:27;15.30;61.80
10316;DHT22;5203;48.976;8.306;2023-03-23T04:58:53;15.40;61.60
10316;DHT22;5203;48.976;8.306;2023-03-23T05:01:19;15.30;62.00
10316;DHT22;5203;48.976;8.306;2023-03-23T05:03:45;15.20;62.40
10316;DHT22;5203;48.976;8.306;2023-03-23T05:06:11;15.20;62.30
10316;DHT22;5203;48.976;8.306;2023-03-23T05:08:36;15.20;62.00
10316;DHT22;5203;48.976;8.306;2023-03-23T05:11:06;15.20;63.20
10316;DHT22;5203;48.976;8.306;2023-03-23T05:13:32;15.20;64.20
10316;DHT22;5203;48.976;8.306;2023-03-23T05:15:58;15.20;64.60
10316;DHT22;5203;48.976;8.306;2023-03-23T05:18:27;15.10;67.10
10316;DHT22;5203;48.976;8.306;2023-03-23T05:20:54;15.10;66.80
10316;DHT22;5203;48.976;8.306;2023-03-23T05:23:20;15.10;67.10
10316;DHT22;5203;48.976;8.306;2023-03-23T05:25:55;15.10;66.80
10316;DHT22;5203;48.976;8.306;2023-03-23T05:28:21;15.00;66.90
10316;DHT22;5203;48.976;8.306;2023-03-23T05:30:47;15.00;67.00
10316;DHT22;5203;48.976;8.306;2023-03-23T05:33:13;15.00;66.80
10316;DHT22;5203;48.976;8.306;2023-03-23T05:35:39;15.00;66.40
10316;DHT22;5203;48.976;8.306;2023-03-23T05:38:05;14.90;67.70
10316;DHT22;5203;48.976;8.306;2023-03-23T05:40:30;14.80;67.90
10316;DHT22;5203;48.976;8.306;2023-03-23T05:42:56;14.90;67.60
10316;DHT22;5203;48.976;8.306;2023-03-23T05:45:24;14.80;67.80
10316;DHT22;5203;48.976;8.306;2023-03-23T05:47:51;14.80;69.10
10316;DHT22;5203;48.976;8.306;2023-03-23T05:50:17;14.80;68.90
10316;DHT22;5203;48.976;8.306;2023-03-23T05:52:43;14.70;68.80
10316;DHT22;5203;48.976;8.306;2023-03-23T05:55:09;14.70;68.90
10316;DHT22;5203;48.976;8.306;2023-03-23T05:57:35;14.60;69.20
10316;DHT22;5203;48.976;8.306;2023-03-23T06:00:01;14.40;70.60
10316;DHT22;5203;48.976;8.306;2023-03-23T06:02:37;14.40;69.60
10316;DHT22;5203;48.976;8.306;2023-03-23T06:05:03;14.50;70.50
10316;DHT22;5203;48.976;8.306;2023-03-23T06:07:28;14.40;71.30
10316;DHT22;5203;48.976;8.306;2023-03-23T06:09:54;14.20;72.20
10316;DHT22;5203;48.976;8.306;2023-03-23T06:12:20;14.10;74.20
10316;DHT22;5203;48.976;8.306;2023-03-23T06:14:47;14.10;74.40
10316;DHT22;5203;48.976;8.306;2023-03-23T06:17:14;14.20;73.40
10316;DHT22;5203;48.976;8.306;2023-03-23T06:19:40;14.20;74.00
10316;DHT22;5203;48.976;8.306;2023-03-23T06:22:06;14.20;73.70
10316;DHT22;5203;48.976;8.306;2023-03-23T06:24:31;14.20;73.00
10316;DHT22;5203;48.976;8.306;2023-03-23T06:26:58;14.20;72.70
10316;DHT22;5203;48.976;8.306;2023-03-23T06:29:24;14.20;73.90
10316;DHT22;5203;48.976;8.306;2023-03-23T06:31:56;14.10;73.10
10316;DHT22;5203;48.976;8.306;2023-03-23T06:34:23;14.10;75.10
10316;DHT22;5203;48.976;8.306;2023-03-23T06:36:49;14.10;73.70
10316;DHT22;5203;48.976;8.306;2023-03-23T06:39:14;14.10;76.10
10316;DHT22;5203;48.976;8.306;2023-03-23T06:41:41;14.00;78.00
10316;DHT22;5203;48.976;8.306;2023-03-23T06:44:07;14.00;78.60
10316;DHT22;5203;48.976;8.306;2023-03-23T06:46:33;13.90;77.50
10316;DHT22;5203;48.976;8.306;2023-03-23T06:48:59;14.00;77.70
10316;DHT22;5203;48.976;8.306;2023-03-23T06:51:25;13.90;78.40
10316;DHT22;5203;48.976;8.306;2023-03-23T06:53:51;14.00;75.50
10316;DHT22;5203;48.976;8.306;2023-03-23T06:56:16;14.00;75.60
10316;DHT22;5203;48.976;8.306;2023-03-23T06:58:42;14.00;74.70
10316;DHT22;5203;48.976;8.306;2023-03-23T07:01:08;14.00;75.20
10316;DHT22;5203;48.976;8.306;2023-03-23T07:03:35;14.00;75.30
10316;DHT22;5203;48.976;8.306;2023-03-23T07:06:01;14.00;75.80
10316;DHT22;5203;48.976;8.306;2023-03-23T07:08:27;14.00;75.90
10316;DHT22;5203;48.976;8.306;2023-03-23T07:10:53;14.00;76.50
10316;DHT22;5203;48.976;8.306;2023-03-23T07:13:20;13.90;76.90
10316;DHT22;5203;48.976;8.306;2023-03-23T07:15:46;13.90;77.50
10316;DHT22;5203;48.976;8.306;2023-03-23T07:18:12;13.80;79.40
10316;DHT22;5203;48.976;8.306;2023-03-23T07:20:37;13.70;80.70
10316;DHT22;5203;48.976;8.306;2023-03-23T07:23:03;13.70;81.30
10316;DHT22;5203;48.976;8.306;2023-03-23T07:25:32;13.70;83.70
10316;DHT22;5203;48.976;8.306;2023-03-23T07:28:02;13.70;83.80
10316;DHT22;5203;48.976;8.306;2023-03-23T07:30:28;13.70;84.60
10316;DHT22;5203;48.976;8.306;2023-03-23T07:32:57;13.70;87.60
10316;DHT22;5203;48.976;8.306;2023-03-23T07:35:24;13.80;89.20
10316;DHT22;5203;48.976;8.306;2023-03-23T07:37:51;13.80;86.50
10316;DHT22;5203;48.976;8.306;2023-03-23T07:40:17;13.90;83.70
10316;DHT22;5203;48.976;8.306;2023-03-23T07:42:45;14.00;82.50
10316;DHT22;5203;48.976;8.306;2023-03-23T07:45:14;13.90;83.00
10316;DHT22;5203;48.976;8.306;2023-03-23T07:47:40;14.00;81.10
10316;DHT22;5203;48.976;8.306;2023-03-23T07:50:07;14.00;81.90
10316;DHT22;5203;48.976;8.306;2023-03-23T07:52:33;14.10;83.20
10316;DHT22;5203;48.976;8.306;2023-03-23T07:54:59;14.10;82.30
10316;DHT22;5203;48.976;8.306;2023-03-23T07:57:27;14.10;81.40
10316;DHT22;5203;48.976;8.306;2023-03-23T07:59:53;14.20;82.60
10316;DHT22;5203;48.976;8.306;2023-03-23T08:02:19;14.20;82.10
10316;DHT22;5203;48.976;8.306;2023-03-23T08:04:45;14.20;80.30
10316;DHT22;5203;48.976;8.306;2023-03-23T08:07:11;14.20;81.30
10316;DHT22;5203;48.976;8.306;2023-03-23T08:09:38;14.30;79.40
10316;DHT22;5203;48.976;8.306;2023-03-23T08:12:04;14.40;77.60
10316;DHT22;5203;48.976;8.306;2023-03-23T08:14:30;14.50;77.70
10316;DHT22;5203;48.976;8.306;2023-03-23T08:16:56;14.60;77.70
10316;DHT22;5203;48.976;8.306;2023-03-23T08:19:23;14.60;78.30
10316;DHT22;5203;48.976;8.306;2023-03-23T08:21:49;14.60;76.30
10316;DHT22;5203;48.976;8.306;2023-03-23T08:24:15;14.70;76.90
10316;DHT22;5203;48.976;8.306;2023-03-23T08:26:42;14.70;76.40
10316;DHT22;5203;48.976;8.306;2023-03-23T08:29:08;14.70;78.10
10316;DHT22;5203;48.976;8.306;2023-03-23T08:31:34;14.70;78.20
10316;DHT22;5203;48.976;8.306;2023-03-23T08:34:04;14.80;77.70
10316;DHT22;5203;48.976;8.306;2023-03-23T08:36:34;14.90;76.70
10316;DHT22;5203;48.976;8.306;2023-03-23T08:39:00;15.00;76.90
10316;DHT22;5203;48.976;8.306;2023-03-23T08:41:26;15.10;76.60
10316;DHT22;5203;48.976;8.306;2023-03-23T08:43:51;15.30;74.60
10316;DHT22;5203;48.976;8.306;2023-03-23T08:46:18;15.30;75.20
10316;DHT22;5203;48.976;8.306;2023-03-23T08:48:45;15.40;76.20
10316;DHT22;5203;48.976;8.306;2023-03-23T08:51:11;15.40;74.20
10316;DHT22;5203;48.976;8.306;2023-03-23T08:53:38;15.30;74.20
10316;DHT22;5203;48.976;8.306;2023-03-23T08:56:09;15.10;73.60
10316;DHT22;5203;48.976;8.306;2023-03-23T08:58:38;15.20;74.90
10316;DHT22;5203;48.976;8.306;2023-03-23T09:01:05;15.10;74.80
10316;DHT22;5203;48.976;8.306;2023-03-23T09:03:36;15.10;74.30
10316;DHT22;5203;48.976;8.306;2023-03-23T09:06:04;15.00;76.30
10316;DHT22;5203;48.976;8.306;2023-03-23T09:08:31;15.00;79.50
10316;DHT22;5203;48.976;8.306;2023-03-23T09:11:01;14.90;78.80
10316;DHT22;5203;48.976;8.306;2023-03-23T09:13:27;14.90;79.50
10316;DHT22;5203;48.976;8.306;2023-03-23T09:15:53;14.70;81.40
10316;DHT22;5203;48.976;8.306;2023-03-23T09:18:19;14.70;81.00
10316;DHT22;5203;48.976;8.306;2023-03-23T09:20:46;14.70;83.40
10316;DHT22;5203;48.976;8.306;2023-03-23T09:23:16;14.60;82.90
10316;DHT22;5203;48.976;8.306;2023-03-23T09:25:50;14.60;83.90
10316;DHT22;5203;48.976;8.306;2023-03-23T09:28:17;14.60;82.50
10316;DHT22;5203;48.976;8.306;2023-03-23T09:30:43;14.60;82.50
10316;DHT22;5203;48.976;8.306;2023-03-23T09:33:11;14.60;83.30
10316;DHT22;5203;48.976;8.306;2023-03-23T09:35:37;14.40;82.80
10316;DHT22;5203;48.976;8.306;2023-03-23T09:38:04;14.30;82.50
10316;DHT22;5203;48.976;8.306;2023-03-23T09:46:00;14.40;81.40
10316;DHT22;5203;48.976;8.306;2023-03-23T09:48:46;14.30;84.60
10316;DHT22;5203;48.976;8.306;2023-03-23T09:54:04;14.10;92.30
10316;DHT22;5203;48.976;8.306;2023-03-23T09:56:32;14.00;94.50
10316;DHT22;5203;48.976;8.306;2023-03-23T09:59:13;14.00;93.50
10316;DHT22;5203;48.976;8.306;2023-03-23T10:01:47;14.00;94.20
10316;DHT22;5203;48.976;8.306;2023-03-23T10:07:19;13.90;94.40
10316;DHT22;5203;48.976;8.306;2023-03-23T10:10:03;13.90;95.00
10316;DHT22;5203;48.976;8.306;2023-03-23T10:13:14;13.80;94.50
10316;DHT22;5203;48.976;8.306;2023-03-23T10:15:26;14.00;93.80
10316;DHT22;5203;48.976;8.306;2023-03-23T10:18:00;14.00;92.90
10316;DHT22;5203;48.976;8.306;2023-03-23T10:20:41;13.90;93.00
10316;DHT22;5203;48.976;8.306;2023-03-23T10:23:32;14.00;93.40
10316;DHT22;5203;48.976;8.306;2023-03-23T10:26:12;14.00;93.40
10316;DHT22;5203;48.976;8.306;2023-03-23T10:28:43;14.00;93.80
10316;DHT22;5203;48.976;8.306;2023-03-23T10:31:32;13.90;97.10
10316;DHT22;5203;48.976;8.306;2023-03-23T10:34:07;13.90;95.60
10316;DHT22;5203;48.976;8.306;2023-03-23T10:39:24;13.90;97.50
10316;DHT22;5203;48.976;8.306;2023-03-23T10:41:51;13.80;97.30
10316;DHT22;5203;48.976;8.306;2023-03-23T10:44:23;13.80;96.10
10316;DHT22;5203;48.976;8.306;2023-03-23T10:49:53;14.10;95.40
10316;DHT22;5203;48.976;8.306;2023-03-23T10:52:25;14.10;93.10
10316;DHT22;5203;48.976;8.306;2023-03-23T10:58:03;14.20;93.90
10316;DHT22;5203;48.976;8.306;2023-03-23T11:00:30;14.20;90.60
10316;DHT22;5203;48.976;8.306;2023-03-23T11:05:27;14.40;92.20
10316;DHT22;5203;48.976;8.306;2023-03-23T11:07:58;14.40;91.10
10316;DHT22;5203;48.976;8.306;2023-03-23T11:10:39;14.30;89.90
10316;DHT22;5203;48.976;8.306;2023-03-23T11:13:13;14.30;93.20
10316;DHT22;5203;48.976;8.306;2023-03-23T11:15:41;14.20;93.00
10316;DHT22;5203;48.976;8.306;2023-03-23T11:18:11;14.30;94.90
10316;DHT22;5203;48.976;8.306;2023-03-23T11:20:43;14.30;93.00
10316;DHT22;5203;48.976;8.306;2023-03-23T11:28:32;14.40;88.50
10316;DHT22;5203;48.976;8.306;2023-03-23T11:31:00;14.50;85.90
10316;DHT22;5203;48.976;8.306;2023-03-23T11:36:07;14.60;83.30
10316;DHT22;5203;48.976;8.306;2023-03-23T11:38:34;14.50;83.50
10316;DHT22;5203;48.976;8.306;2023-03-23T11:41:00;14.60;82.10
10316;DHT22;5203;48.976;8.306;2023-03-23T11:43:26;14.60;84.20
10316;DHT22;5203;48.976;8.306;2023-03-23T11:56:39;14.80;80.70
10316;DHT22;5203;48.976;8.306;2023-03-23T11:59:19;14.80;79.30
10316;DHT22;5203;48.976;8.306;2023-03-23T12:21:14;15.30;73.90
10316;DHT22;5203;48.976;8.306;2023-03-23T12:35:05;15.50;70.80
10316;DHT22;5203;48.976;8.306;2023-03-23T12:40:23;15.40;72.00
10316;DHT22;5203;48.976;8.306;2023-03-23T12:48:48;15.60;71.40
10316;DHT22;5203;48.976;8.306;2023-03-23T12:59:57;15.70;71.20
10316;DHT22;5203;48.976;8.306;2023-03-23T13:02:35;15.70;71.10
10316;DHT22;5203;48.976;8.306;2023-03-23T13:05:32;15.70;71.00
10316;DHT22;5203;48.976;8.306;2023-03-23T13:10:35;15.60;69.50
10316;DHT22;5203;48.976;8.306;2023-03-23T13:13:03;15.50;71.20
10316;DHT22;5203;48.976;8.306;2023-03-23T13:18:58;15.40;70.70
10316;DHT22;5203;48.976;8.306;2023-03-23T13:22:05;15.60;70.90
10316;DHT22;5203;48.976;8.306;2023-03-23T13:24:34;15.70;71.90
10316;DHT22;5203;48.976;8.306;2023-03-23T13:27:01;15.70;71.00
10316;DHT22;5203;48.976;8.306;2023-03-23T13:29:27;15.70;71.30
10316;DHT22;5203;48.976;8.306;2023-03-23T13:32:12;15.60;74.10
10316;DHT22;5203;48.976;8.306;2023-03-23T13:34:40;15.80;72.40
10316;DHT22;5203;48.976;8.306;2023-03-23T13:37:21;16.00;71.70
10316;DHT22;5203;48.976;8.306;2023-03-23T13:42:24;16.00;70.40
10316;DHT22;5203;48.976;8.306;2023-03-23T14:05:37;16.40;71.20
10316;DHT22;5203;48.976;8.306;2023-03-23T14:10:43;16.80;68.70
10316;DHT22;5203;48.976;8.306;2023-03-23T14:13:25;16.90;68.30
10316;DHT22;5203;48.976;8.306;2023-03-23T14:18:34;16.80;70.00
10316;DHT22;5203;48.976;8.306;2023-03-23T14:21:01;16.70;70.10
10316;DHT22;5203;48.976;8.306;2023-03-23T14:23:27;16.80;69.70
10316;DHT22;5203;48.976;8.306;2023-03-23T14:25:59;16.80;70.40
10316;DHT22;5203;48.976;8.306;2023-03-23T14:28:31;16.80;68.40
10316;DHT22;5203;48.976;8.306;2023-03-23T14:30:58;16.70;70.00
10316;DHT22;5203;48.976;8.306;2023-03-23T14:33:25;16.50;70.00
10316;DHT22;5203;48.976;8.306;2023-03-23T14:35:52;16.40;70.70
10316;DHT22;5203;48.976;8.306;2023-03-23T14:38:21;16.40;71.70
10316;DHT22;5203;48.976;8.306;2023-03-23T14:40:50;16.30;70.90
10316;DHT22;5203;48.976;8.306;2023-03-23T14:43:20;16.40;70.40
10316;DHT22;5203;48.976;8.306;2023-03-23T14:45:51;16.30;71.30
10316;DHT22;5203;48.976;8.306;2023-03-23T14:48:17;16.40;70.70
10316;DHT22;5203;48.976;8.306;2023-03-23T14:50:50;16.30;70.20
10316;DHT22;5203;48.976;8.306;2023-03-23T14:53:40;16.30;70.60
10316;DHT22;5203;48.976;8.306;2023-03-23T14:56:16;16.30;70.50
10316;DHT22;5203;48.976;8.306;2023-03-23T14:58:50;16.50;69.40
10316;DHT22;5203;48.976;8.306;2023-03-23T15:01:24;16.30;70.10
10316;DHT22;5203;48.976;8.306;2023-03-23T15:04:09;16.30;71.50
10316;DHT22;5203;48.976;8.306;2023-03-23T15:06:37;16.20;71.10
10316;DHT22;5203;48.976;8.306;2023-03-23T15:09:07;16.20;72.00
10316;DHT22;5203;48.976;8.306;2023-03-23T15:11:37;16.20;71.70
10316;DHT22;5203;48.976;8.306;2023-03-23T15:14:27;16.20;72.00
10316;DHT22;5203;48.976;8.306;2023-03-23T15:16:55;16.50;70.60
10316;DHT22;5203;48.976;8.306;2023-03-23T15:19:26;16.50;70.50
10316;DHT22;5203;48.976;8.306;2023-03-23T15:21:55;16.70;68.80
10316;DHT22;5203;48.976;8.306;2023-03-23T15:24:27;16.80;69.30
10316;DHT22;5203;48.976;8.306;2023-03-23T15:27:13;16.70;70.20
10316;DHT22;5203;48.976;8.306;2023-03-23T15:32:41;16.80;70.30
10316;DHT22;5203;48.976;8.306;2023-03-23T15:35:15;16.80;71.20
10316;DHT22;5203;48.976;8.306;2023-03-23T15:37:51;16.70;71.80
10316;DHT22;5203;48.976;8.306;2023-03-23T15:40:19;16.70;72.00
10316;DHT22;5203;48.976;8.306;2023-03-23T15:42:46;16.50;71.90
10316;DHT22;5203;48.976;8.306;2023-03-23T15:50:12;16.50;72.30
10316;DHT22;5203;48.976;8.306;2023-03-23T15:52:38;16.40;72.10
10316;DHT22;5203;48.976;8.306;2023-03-23T15:55:25;16.50;71.80
10316;DHT22;5203;48.976;8.306;2023-03-23T15:57:53;16.70;70.00
10316;DHT22;5203;48.976;8.306;2023-03-23T16:00:20;16.90;69.30
10316;DHT22;5203;48.976;8.306;2023-03-23T16:02:49;16.90;69.70
10316;DHT22;5203;48.976;8.306;2023-03-23T16:05:17;16.90;70.00
10316;DHT22;5203;48.976;8.306;2023-03-23T16:07:42;16.90;70.80
10316;DHT22;5203;48.976;8.306;2023-03-23T16:10:15;17.00;69.70
10316;DHT22;5203;48.976;8.306;2023-03-23T16:12:42;17.00;69.00
10316;DHT22;5203;48.976;8.306;2023-03-23T16:15:08;16.90;70.80
10316;DHT22;5203;48.976;8.306;2023-03-23T16:17:34;16.80;72.80
10316;DHT22;5203;48.976;8.306;2023-03-23T16:20:18;16.80;73.60
10316;DHT22;5203;48.976;8.306;2023-03-23T16:22:45;16.70;73.40
10316;DHT22;5203;48.976;8.306;2023-03-23T16:25:11;16.60;73.20
10316;DHT22;5203;48.976;8.306;2023-03-23T16:27:38;16.70;73.10
10316;DHT22;5203;48.976;8.306;2023-03-23T16:30:16;16.70;72.90
10316;DHT22;5203;48.976;8.306;2023-03-23T16:32:42;16.70;73.40
10316;DHT22;5203;48.976;8.306;2023-03-23T16:35:09;16.70;74.50
10316;DHT22;5203;48.976;8.306;2023-03-23T16:37:35;16.80;72.80
10316;DHT22;5203;48.976;8.306;2023-03-23T16:40:02;16.70;73.00
10316;DHT22;5203;48.976;8.306;2023-03-23T16:42:28;16.70;72.90
10316;DHT22;5203;48.976;8.306;2023-03-23T16:44:54;16.60;73.70
10316;DHT22;5203;48.976;8.306;2023-03-23T16:47:20;16.60;74.50
10316;DHT22;5203;48.976;8.306;2023-03-23T16:49:50;16.70;74.50
10316;DHT22;5203;48.976;8.306;2023-03-23T16:52:17;16.70;76.10
10316;DHT22;5203;48.976;8.306;2023-03-23T16:54:42;16.60;74.90
10316;DHT22;5203;48.976;8.306;2023-03-23T16:57:08;16.60;75.00
10316;DHT22;5203;48.976;8.306;2023-03-23T16:59:34;16.60;74.60
10316;DHT22;5203;48.976;8.306;2023-03-23T17:02:00;16.60;74.50
10316;DHT22;5203;48.976;8.306;2023-03-23T17:04:29;16.60;74.60
10316;DHT22;5203;48.976;8.306;2023-03-23T17:06:55;16.70;74.40
10316;DHT22;5203;48.976;8.306;2023-03-23T17:09:24;16.70;73.60
10316;DHT22;5203;48.976;8.306;2023-03-23T17:11:49;16.60;73.60
10316;DHT22;5203;48.976;8.306;2023-03-23T17:14:15;16.50;74.70
10316;DHT22;5203;48.976;8.306;2023-03-23T17:16:41;16.50;74.60
10316;DHT22;5203;48.976;8.306;2023-03-23T17:19:06;16.40;75.00
10316;DHT22;5203;48.976;8.306;2023-03-23T17:21:32;16.40;75.60
10316;DHT22;5203;48.976;8.306;2023-03-23T17:23:58;16.30;75.80
10316;DHT22;5203;48.976;8.306;2023-03-23T17:26:23;16.30;76.00
10316;DHT22;5203;48.976;8.306;2023-03-23T17:28:49;16.40;75.50
10316;DHT22;5203;48.976;8.306;2023-03-23T17:31:15;16.40;75.20
10316;DHT22;5203;48.976;8.306;2023-03-23T17:33:40;16.30;75.90
10316;DHT22;5203;48.976;8.306;2023-03-23T17:36:07;16.30;75.50
10316;DHT22;5203;48.976;8.306;2023-03-23T17:38:33;16.20;76.60
10316;DHT22;5203;48.976;8.306;2023-03-23T17:41:00;16.10;74.50
10316;DHT22;5203;48.976;8.306;2023-03-23T17:43:26;16.20;72.70
10316;DHT22;5203;48.976;8.306;2023-03-23T17:45:51;16.30;71.80
10316;DHT22;5203;48.976;8.306;2023-03-23T17:48:17;16.20;72.00
10316;DHT22;5203;48.976;8.306;2023-03-23T17:50:46;16.10;72.30
10316;DHT22;5203;48.976;8.306;2023-03-23T17:53:12;16.00;71.00
10316;DHT22;5203;48.976;8.306;2023-03-23T17:55:38;15.90;72.70
10316;DHT22;5203;48.976;8.306;2023-03-23T17:58:08;15.80;72.90
10316;DHT22;5203;48.976;8.306;2023-03-23T18:00:33;15.80;73.30
10316;DHT22;5203;48.976;8.306;2023-03-23T18:02:59;15.80;72.60
10316;DHT22;5203;48.976;8.306;2023-03-23T18:05:25;15.70;72.90
10316;DHT22;5203;48.976;8.306;2023-03-23T18:07:52;15.70;72.40
10316;DHT22;5203;48.976;8.306;2023-03-23T18:10:19;15.70;72.10
10316;DHT22;5203;48.976;8.306;2023-03-23T18:12:48;15.70;72.00
10316;DHT22;5203;48.976;8.306;2023-03-23T18:15:14;15.80;70.90
10316;DHT22;5203;48.976;8.306;2023-03-23T18:17:40;15.90;69.10
10316;DHT22;5203;48.976;8.306;2023-03-23T18:20:07;15.80;69.60
10316;DHT22;5203;48.976;8.306;2023-03-23T18:22:33;15.80;67.80
10316;DHT22;5203;48.976;8.306;2023-03-23T18:24:59;15.80;68.10
10316;DHT22;5203;48.976;8.306;2023-03-23T18:27:27;15.80;67.00
10316;DHT22;5203;48.976;8.306;2023-03-23T18:29:52;15.80;67.20
10316;DHT22;5203;48.976;8.306;2023-03-23T18:32:18;15.80;66.40
10316;DHT22;5203;48.976;8.306;2023-03-23T18:34:44;15.80;65.40
10316;DHT22;5203;48.976;8.306;2023-03-23T18:37:10;15.80;65.60